SWA1713 KTUL-KDEN
Flight info
| Callsign | SWA1713 |
|---|---|
| Flight time | 1h 23m |
| Altitude | 36000 |
| Route | FRAKS GCK KIISS CLASH5 |
| Aircraft | B738/M-SDE2E3GIJ4RWZ/LB1D1 |
Departure
| Time | 2026-05-09 02:53 |
|---|---|
| Airport | Tulsa International Airport (KTUL) |
Arrival
| Time | 2026-05-09 04:16 |
|---|---|
| Airport | Denver International Airport (KDEN) |
| Time | Latitude | Longitude | Altitude | Speed | Heading |
|---|---|---|---|---|---|
| 2026-05-09 02:04 | 36.19226 | -95.89002 | 629 ft | 0 kts | 155° |
| 2026-05-09 02:41 | 36.19228 | -95.89003 | 667 ft | 3 kts | 155° |
| 2026-05-09 02:42 | 36.19252 | -95.89017 | 664 ft | 4 kts | 155° |
| 2026-05-09 02:42 | 36.19271 | -95.89028 | 664 ft | 4 kts | 139° |
| 2026-05-09 02:42 | 36.19282 | -95.89044 | 665 ft | 0 kts | 127° |
| 2026-05-09 02:45 | 36.19281 | -95.89042 | 665 ft | 1 kts | 125° |
| 2026-05-09 02:45 | 36.19286 | -95.89029 | 667 ft | 3 kts | 60° |
| 2026-05-09 02:45 | 36.19308 | -95.89001 | 665 ft | 6 kts | 39° |
| 2026-05-09 02:45 | 36.19350 | -95.88967 | 664 ft | 9 kts | 32° |
| 2026-05-09 02:46 | 36.19408 | -95.88923 | 667 ft | 11 kts | 37° |
| 2026-05-09 02:46 | 36.19443 | -95.88847 | 667 ft | 10 kts | 75° |
| 2026-05-09 02:46 | 36.19449 | -95.88762 | 667 ft | 10 kts | 87° |
| 2026-05-09 02:46 | 36.19447 | -95.88679 | 665 ft | 10 kts | 92° |
| 2026-05-09 02:47 | 36.19462 | -95.88605 | 664 ft | 9 kts | 33° |
| 2026-05-09 02:47 | 36.19524 | -95.88592 | 669 ft | 9 kts | 357° |
| 2026-05-09 02:47 | 36.19592 | -95.88594 | 669 ft | 11 kts | 0° |
| 2026-05-09 02:47 | 36.19685 | -95.88592 | 667 ft | 15 kts | 1° |
| 2026-05-09 02:48 | 36.19797 | -95.88565 | 667 ft | 18 kts | 19° |
| 2026-05-09 02:48 | 36.19920 | -95.88513 | 667 ft | 20 kts | 18° |
| 2026-05-09 02:48 | 36.20055 | -95.88460 | 667 ft | 21 kts | 18° |
| 2026-05-09 02:48 | 36.20202 | -95.88400 | 667 ft | 23 kts | 18° |
| 2026-05-09 02:49 | 36.20356 | -95.88370 | 667 ft | 22 kts | 3° |
| 2026-05-09 02:49 | 36.20507 | -95.88360 | 667 ft | 21 kts | 3° |
| 2026-05-09 02:49 | 36.20653 | -95.88354 | 667 ft | 21 kts | 4° |
| 2026-05-09 02:49 | 36.20793 | -95.88343 | 667 ft | 20 kts | 2° |
| 2026-05-09 02:50 | 36.20925 | -95.88330 | 667 ft | 18 kts | 11° |
| 2026-05-09 02:50 | 36.21046 | -95.88325 | 667 ft | 17 kts | 359° |
| 2026-05-09 02:50 | 36.21122 | -95.88325 | 666 ft | 16 kts | 3° |
| 2026-05-09 02:50 | 36.21227 | -95.88315 | 666 ft | 15 kts | 3° |
| 2026-05-09 02:51 | 36.21325 | -95.88313 | 666 ft | 14 kts | 1° |
| 2026-05-09 02:51 | 36.21390 | -95.88263 | 666 ft | 11 kts | 78° |
| 2026-05-09 02:51 | 36.21389 | -95.88175 | 667 ft | 10 kts | 99° |
| 2026-05-09 02:51 | 36.21348 | -95.88139 | 667 ft | 7 kts | 173° |
| 2026-05-09 02:52 | 36.21306 | -95.88140 | 668 ft | 9 kts | 183° |
| 2026-05-09 02:52 | 36.21163 | -95.88148 | 668 ft | 42 kts | 182° |
| 2026-05-09 02:52 | 36.20614 | -95.88185 | 666 ft | 114 kts | 183° |
| 2026-05-09 02:52 | 36.19627 | -95.88203 | 736 ft | 164 kts | 180° |
| 2026-05-09 02:53 | 36.18448 | -95.88259 | 1389 ft | 171 kts | 185° |
| 2026-05-09 02:53 | 36.17276 | -95.88416 | 2368 ft | 164 kts | 190° |
| 2026-05-09 02:53 | 36.16167 | -95.88600 | 3169 ft | 165 kts | 189° |
| 2026-05-09 02:53 | 36.14908 | -95.88585 | 3474 ft | 198 kts | 182° |
| 2026-05-09 02:54 | 36.13442 | -95.88558 | 3725 ft | 224 kts | 182° |
| 2026-05-09 02:54 | 36.11814 | -95.88525 | 4061 ft | 240 kts | 182° |
| 2026-05-09 02:54 | 36.10121 | -95.88557 | 4638 ft | 246 kts | 193° |
| 2026-05-09 02:54 | 36.08590 | -95.89403 | 5342 ft | 241 kts | 224° |
| 2026-05-09 02:55 | 36.07652 | -95.91067 | 6148 ft | 235 kts | 256° |
| 2026-05-09 02:55 | 36.07558 | -95.93034 | 7006 ft | 229 kts | 285° |
| 2026-05-09 02:55 | 36.08293 | -95.94758 | 7780 ft | 233 kts | 312° |
| 2026-05-09 02:55 | 36.09643 | -95.96053 | 8106 ft | 260 kts | 328° |
| 2026-05-09 02:56 | 36.11261 | -95.97149 | 8835 ft | 268 kts | 330° |
| 2026-05-09 02:56 | 36.12928 | -95.98219 | 9713 ft | 271 kts | 330° |
| 2026-05-09 02:56 | 36.14619 | -95.99299 | 10461 ft | 278 kts | 330° |
| 2026-05-09 02:56 | 36.16411 | -96.00452 | 10694 ft | 304 kts | 329° |
| 2026-05-09 02:57 | 36.18357 | -96.01716 | 10895 ft | 328 kts | 329° |
| 2026-05-09 02:57 | 36.20436 | -96.03072 | 11261 ft | 344 kts | 329° |
| 2026-05-09 02:57 | 36.22543 | -96.04451 | 11981 ft | 347 kts | 329° |
| 2026-05-09 02:57 | 36.24704 | -96.05867 | 12830 ft | 348 kts | 329° |
| 2026-05-09 02:58 | 36.26845 | -96.07276 | 13617 ft | 350 kts | 328° |
| 2026-05-09 02:58 | 36.29010 | -96.08705 | 14213 ft | 356 kts | 328° |
| 2026-05-09 02:58 | 36.31206 | -96.10156 | 14852 ft | 359 kts | 329° |
| 2026-05-09 02:58 | 36.33389 | -96.11600 | 15500 ft | 361 kts | 328° |
| 2026-05-09 02:59 | 36.35612 | -96.13071 | 16153 ft | 364 kts | 328° |
| 2026-05-09 02:59 | 36.37856 | -96.14557 | 16777 ft | 367 kts | 328° |
| 2026-05-09 02:59 | 36.40123 | -96.16060 | 17377 ft | 370 kts | 328° |
| 2026-05-09 02:59 | 36.42402 | -96.17572 | 18005 ft | 373 kts | 328° |
| 2026-05-09 03:00 | 36.44700 | -96.19098 | 18545 ft | 376 kts | 328° |
| 2026-05-09 03:00 | 36.47013 | -96.20635 | 19075 ft | 378 kts | 328° |
| 2026-05-09 03:00 | 36.49338 | -96.22180 | 19618 ft | 380 kts | 329° |
| 2026-05-09 03:00 | 36.51675 | -96.23735 | 20164 ft | 382 kts | 329° |
| 2026-05-09 03:01 | 36.54023 | -96.25299 | 20701 ft | 384 kts | 329° |
| 2026-05-09 03:01 | 36.56387 | -96.26874 | 21228 ft | 387 kts | 329° |
| 2026-05-09 03:01 | 36.58767 | -96.28461 | 21705 ft | 389 kts | 329° |
| 2026-05-09 03:01 | 36.61168 | -96.30063 | 22176 ft | 392 kts | 329° |
| 2026-05-09 03:02 | 36.63579 | -96.31673 | 22649 ft | 394 kts | 329° |
| 2026-05-09 03:02 | 36.66001 | -96.33302 | 23119 ft | 396 kts | 328° |
| 2026-05-09 03:02 | 36.68199 | -96.35368 | 23499 ft | 398 kts | 315° |
| 2026-05-09 03:02 | 36.70028 | -96.37964 | 23864 ft | 400 kts | 307° |
| 2026-05-09 03:03 | 36.71487 | -96.40925 | 24225 ft | 404 kts | 296° |
| 2026-05-09 03:03 | 36.72530 | -96.44193 | 24598 ft | 407 kts | 293° |
| 2026-05-09 03:03 | 36.73515 | -96.47511 | 24955 ft | 409 kts | 292° |
| 2026-05-09 03:03 | 36.74489 | -96.50847 | 25305 ft | 411 kts | 292° |
| 2026-05-09 03:04 | 36.75473 | -96.54216 | 25650 ft | 413 kts | 292° |
| 2026-05-09 03:04 | 36.76451 | -96.57547 | 25983 ft | 415 kts | 292° |
| 2026-05-09 03:04 | 36.77454 | -96.60934 | 26336 ft | 417 kts | 292° |
| 2026-05-09 03:04 | 36.78465 | -96.64337 | 26669 ft | 419 kts | 292° |
| 2026-05-09 03:05 | 36.79486 | -96.67760 | 26983 ft | 421 kts | 292° |
| 2026-05-09 03:05 | 36.80512 | -96.71198 | 27313 ft | 423 kts | 292° |
| 2026-05-09 03:05 | 36.81543 | -96.74650 | 27630 ft | 425 kts | 292° |
| 2026-05-09 03:05 | 36.82576 | -96.78116 | 27951 ft | 427 kts | 292° |
| 2026-05-09 03:06 | 36.83612 | -96.81593 | 28296 ft | 428 kts | 292° |
| 2026-05-09 03:06 | 36.84644 | -96.85065 | 28752 ft | 426 kts | 292° |
| 2026-05-09 03:06 | 36.85673 | -96.88530 | 29268 ft | 423 kts | 292° |
| 2026-05-09 03:06 | 36.86690 | -96.91960 | 29776 ft | 421 kts | 292° |
| 2026-05-09 03:07 | 36.87704 | -96.95385 | 30180 ft | 420 kts | 292° |
| 2026-05-09 03:07 | 36.88717 | -96.98804 | 30528 ft | 419 kts | 292° |
| 2026-05-09 03:07 | 36.89728 | -97.02222 | 30853 ft | 419 kts | 292° |
| 2026-05-09 03:07 | 36.90735 | -97.05634 | 31218 ft | 418 kts | 292° |
| 2026-05-09 03:08 | 36.91739 | -97.09036 | 31602 ft | 416 kts | 292° |
| 2026-05-09 03:08 | 36.92737 | -97.12424 | 31960 ft | 415 kts | 292° |
| 2026-05-09 03:08 | 36.93734 | -97.15813 | 32278 ft | 415 kts | 292° |
| 2026-05-09 03:08 | 36.94727 | -97.19197 | 32643 ft | 413 kts | 292° |
| 2026-05-09 03:09 | 36.95713 | -97.22560 | 33004 ft | 412 kts | 292° |
| 2026-05-09 03:09 | 36.96701 | -97.25930 | 33324 ft | 412 kts | 292° |
| 2026-05-09 03:09 | 36.97683 | -97.29285 | 33640 ft | 411 kts | 292° |
| 2026-05-09 03:09 | 36.98664 | -97.32640 | 33954 ft | 410 kts | 292° |
| 2026-05-09 03:10 | 36.99644 | -97.35992 | 34217 ft | 410 kts | 292° |
| 2026-05-09 03:10 | 37.00623 | -97.39350 | 34469 ft | 410 kts | 292° |
| 2026-05-09 03:10 | 37.01597 | -97.42693 | 34722 ft | 410 kts | 292° |
| 2026-05-09 03:10 | 37.02571 | -97.46046 | 34978 ft | 409 kts | 292° |
| 2026-05-09 03:11 | 37.03543 | -97.49390 | 35262 ft | 408 kts | 291° |
| 2026-05-09 03:11 | 37.04510 | -97.52720 | 35525 ft | 407 kts | 291° |
| 2026-05-09 03:11 | 37.05478 | -97.56058 | 35746 ft | 408 kts | 291° |
| 2026-05-09 03:11 | 37.06447 | -97.59406 | 35865 ft | 409 kts | 291° |
| 2026-05-09 03:12 | 37.07398 | -97.62700 | 35864 ft | 408 kts | 291° |
| 2026-05-09 03:12 | 37.09329 | -97.69391 | 35865 ft | 408 kts | 291° |
| 2026-05-09 03:13 | 37.12214 | -97.79411 | 35891 ft | 407 kts | 291° |
| 2026-05-09 03:13 | 37.14129 | -97.86084 | 35906 ft | 407 kts | 291° |
| 2026-05-09 03:14 | 37.16037 | -97.92755 | 35921 ft | 407 kts | 291° |
| 2026-05-09 03:14 | 37.17944 | -97.99434 | 35923 ft | 407 kts | 291° |
| 2026-05-09 03:15 | 37.19850 | -98.06126 | 35925 ft | 407 kts | 291° |
| 2026-05-09 03:15 | 37.21751 | -98.12818 | 35925 ft | 408 kts | 291° |
| 2026-05-09 03:16 | 37.23657 | -98.19542 | 35916 ft | 409 kts | 292° |
| 2026-05-09 03:16 | 37.25561 | -98.26278 | 35913 ft | 409 kts | 292° |
| 2026-05-09 03:17 | 37.27459 | -98.33013 | 35898 ft | 410 kts | 292° |
| 2026-05-09 03:17 | 37.29345 | -98.39719 | 35892 ft | 410 kts | 292° |
| 2026-05-09 03:18 | 37.31243 | -98.46486 | 35886 ft | 410 kts | 292° |
| 2026-05-09 03:18 | 37.33136 | -98.53252 | 35881 ft | 410 kts | 292° |
| 2026-05-09 03:19 | 37.35026 | -98.60022 | 35885 ft | 411 kts | 292° |
| 2026-05-09 03:19 | 37.36913 | -98.66799 | 35896 ft | 411 kts | 292° |
| 2026-05-09 03:20 | 37.38798 | -98.73596 | 35899 ft | 412 kts | 292° |
| 2026-05-09 03:20 | 37.40681 | -98.80392 | 35904 ft | 412 kts | 292° |
| 2026-05-09 03:21 | 37.42563 | -98.87201 | 35907 ft | 412 kts | 292° |
| 2026-05-09 03:21 | 37.44446 | -98.94036 | 35909 ft | 413 kts | 292° |
| 2026-05-09 03:22 | 37.46323 | -99.00866 | 35906 ft | 413 kts | 292° |
| 2026-05-09 03:22 | 37.48201 | -99.07717 | 35897 ft | 413 kts | 292° |
| 2026-05-09 03:23 | 37.50073 | -99.14567 | 35899 ft | 414 kts | 292° |
| 2026-05-09 03:23 | 37.51940 | -99.21412 | 35900 ft | 413 kts | 292° |
| 2026-05-09 03:24 | 37.53806 | -99.28270 | 35898 ft | 413 kts | 292° |
| 2026-05-09 03:24 | 37.55665 | -99.35122 | 35898 ft | 413 kts | 292° |
| 2026-05-09 03:25 | 37.57511 | -99.41947 | 35902 ft | 413 kts | 292° |
| 2026-05-09 03:25 | 37.59363 | -99.48809 | 35908 ft | 414 kts | 292° |
| 2026-05-09 03:26 | 37.61216 | -99.55699 | 35904 ft | 415 kts | 292° |
| 2026-05-09 03:26 | 37.63067 | -99.62585 | 35920 ft | 415 kts | 292° |
| 2026-05-09 03:27 | 37.64918 | -99.69504 | 35931 ft | 416 kts | 292° |
| 2026-05-09 03:27 | 37.66768 | -99.76440 | 35942 ft | 417 kts | 292° |
| 2026-05-09 03:28 | 37.68619 | -99.83391 | 35955 ft | 418 kts | 292° |
| 2026-05-09 03:28 | 37.70470 | -99.90357 | 35963 ft | 419 kts | 292° |
| 2026-05-09 03:29 | 37.72319 | -99.97341 | 35962 ft | 420 kts | 292° |
| 2026-05-09 03:29 | 37.74167 | -100.04341 | 35962 ft | 420 kts | 292° |
| 2026-05-09 03:30 | 37.76014 | -100.11358 | 35958 ft | 421 kts | 292° |
| 2026-05-09 03:30 | 37.77859 | -100.18383 | 35949 ft | 422 kts | 292° |
| 2026-05-09 03:31 | 37.79703 | -100.25424 | 35937 ft | 422 kts | 292° |
| 2026-05-09 03:31 | 37.81544 | -100.32474 | 35927 ft | 422 kts | 292° |
| 2026-05-09 03:32 | 37.83072 | -100.38336 | 35924 ft | 422 kts | 292° |
| 2026-05-09 03:32 | 37.84901 | -100.45376 | 35938 ft | 421 kts | 292° |
| 2026-05-09 03:33 | 37.87022 | -100.53566 | 35948 ft | 421 kts | 292° |
| 2026-05-09 03:33 | 37.88545 | -100.59461 | 35954 ft | 420 kts | 292° |
| 2026-05-09 03:34 | 37.90356 | -100.66488 | 35962 ft | 419 kts | 292° |
| 2026-05-09 03:34 | 37.92236 | -100.73476 | 35961 ft | 417 kts | 298° |
| 2026-05-09 03:35 | 37.94756 | -100.80055 | 35960 ft | 415 kts | 300° |
| 2026-05-09 03:35 | 37.97304 | -100.86574 | 35958 ft | 415 kts | 300° |
| 2026-05-09 03:36 | 37.99846 | -100.93149 | 35948 ft | 415 kts | 300° |
| 2026-05-09 03:36 | 38.02374 | -100.99737 | 35937 ft | 416 kts | 300° |
| 2026-05-09 03:37 | 38.04901 | -101.06351 | 35924 ft | 416 kts | 300° |
| 2026-05-09 03:37 | 38.07424 | -101.12967 | 35911 ft | 416 kts | 300° |
| 2026-05-09 03:38 | 38.09946 | -101.19591 | 35911 ft | 416 kts | 300° |
| 2026-05-09 03:38 | 38.12459 | -101.26209 | 35912 ft | 417 kts | 300° |
| 2026-05-09 03:39 | 38.14975 | -101.32848 | 35917 ft | 417 kts | 299° |
| 2026-05-09 03:39 | 38.17484 | -101.39485 | 35915 ft | 417 kts | 299° |
| 2026-05-09 03:40 | 38.20058 | -101.46086 | 35908 ft | 415 kts | 303° |
| 2026-05-09 03:40 | 38.23117 | -101.52274 | 35917 ft | 413 kts | 307° |
| 2026-05-09 03:41 | 38.26288 | -101.58379 | 35915 ft | 414 kts | 306° |
| 2026-05-09 03:41 | 38.29396 | -101.64488 | 35910 ft | 414 kts | 306° |
| 2026-05-09 03:42 | 38.32488 | -101.70667 | 35913 ft | 413 kts | 306° |
| 2026-05-09 03:42 | 38.35584 | -101.76890 | 35913 ft | 413 kts | 306° |
| 2026-05-09 03:43 | 38.38636 | -101.83036 | 35914 ft | 413 kts | 306° |
| 2026-05-09 03:43 | 38.41700 | -101.89219 | 35913 ft | 412 kts | 306° |
| 2026-05-09 03:44 | 38.44758 | -101.95403 | 35914 ft | 412 kts | 305° |
| 2026-05-09 03:44 | 38.47809 | -102.01587 | 35914 ft | 412 kts | 305° |
| 2026-05-09 03:45 | 38.50857 | -102.07777 | 35911 ft | 412 kts | 305° |
| 2026-05-09 03:45 | 38.53904 | -102.13976 | 35919 ft | 412 kts | 305° |
| 2026-05-09 03:46 | 38.56954 | -102.20190 | 35917 ft | 412 kts | 305° |
| 2026-05-09 03:46 | 38.59992 | -102.26409 | 35916 ft | 412 kts | 305° |
| 2026-05-09 03:47 | 38.63024 | -102.32639 | 35918 ft | 412 kts | 305° |
| 2026-05-09 03:47 | 38.66051 | -102.38870 | 35921 ft | 412 kts | 305° |
| 2026-05-09 03:48 | 38.69072 | -102.45103 | 35915 ft | 412 kts | 305° |
| 2026-05-09 03:48 | 38.72093 | -102.51348 | 35927 ft | 412 kts | 305° |
| 2026-05-09 03:49 | 38.75108 | -102.57591 | 35926 ft | 412 kts | 305° |
| 2026-05-09 03:49 | 38.78122 | -102.63843 | 35921 ft | 412 kts | 305° |
| 2026-05-09 03:50 | 38.81130 | -102.70095 | 35925 ft | 412 kts | 304° |
| 2026-05-09 03:50 | 38.84135 | -102.76355 | 35929 ft | 412 kts | 304° |
| 2026-05-09 03:51 | 38.87137 | -102.82619 | 35930 ft | 412 kts | 304° |
| 2026-05-09 03:51 | 38.90136 | -102.88890 | 35930 ft | 412 kts | 304° |
| 2026-05-09 03:52 | 38.93158 | -102.95215 | 35273 ft | 420 kts | 304° |
| 2026-05-09 03:52 | 38.94678 | -102.98405 | 34643 ft | 419 kts | 304° |
| 2026-05-09 03:52 | 38.96205 | -103.01592 | 33986 ft | 420 kts | 304° |
| 2026-05-09 03:53 | 38.97752 | -103.04787 | 33211 ft | 421 kts | 304° |
| 2026-05-09 03:53 | 38.99303 | -103.07981 | 32452 ft | 422 kts | 304° |
| 2026-05-09 03:53 | 39.00856 | -103.11186 | 31791 ft | 421 kts | 303° |
| 2026-05-09 03:53 | 39.02391 | -103.14362 | 31279 ft | 416 kts | 303° |
| 2026-05-09 03:54 | 39.03905 | -103.17504 | 30769 ft | 412 kts | 303° |
| 2026-05-09 03:54 | 39.05406 | -103.20628 | 30256 ft | 409 kts | 303° |
| 2026-05-09 03:54 | 39.06887 | -103.23739 | 29705 ft | 406 kts | 302° |
| 2026-05-09 03:54 | 39.08350 | -103.26828 | 29130 ft | 402 kts | 302° |
| 2026-05-09 03:55 | 39.09799 | -103.29889 | 28597 ft | 398 kts | 302° |
| 2026-05-09 03:55 | 39.11231 | -103.32916 | 28094 ft | 394 kts | 302° |
| 2026-05-09 03:55 | 39.12633 | -103.35880 | 27595 ft | 390 kts | 302° |
| 2026-05-09 03:55 | 39.14036 | -103.38849 | 27097 ft | 386 kts | 302° |
| 2026-05-09 03:56 | 39.15429 | -103.41799 | 26611 ft | 383 kts | 302° |
| 2026-05-09 03:56 | 39.16805 | -103.44713 | 26129 ft | 380 kts | 302° |
| 2026-05-09 03:56 | 39.18174 | -103.47615 | 25646 ft | 377 kts | 302° |
| 2026-05-09 03:56 | 39.19529 | -103.50491 | 25171 ft | 374 kts | 302° |
| 2026-05-09 03:57 | 39.20878 | -103.53355 | 24674 ft | 373 kts | 302° |
| 2026-05-09 03:57 | 39.22219 | -103.56207 | 24190 ft | 371 kts | 302° |
| 2026-05-09 03:57 | 39.23554 | -103.59048 | 23696 ft | 369 kts | 302° |
| 2026-05-09 03:57 | 39.24884 | -103.61883 | 23137 ft | 367 kts | 301° |
| 2026-05-09 03:58 | 39.26200 | -103.64688 | 22614 ft | 364 kts | 301° |
| 2026-05-09 03:58 | 39.27507 | -103.67476 | 22145 ft | 360 kts | 301° |
| 2026-05-09 03:58 | 39.28783 | -103.70192 | 22008 ft | 348 kts | 302° |
| 2026-05-09 03:58 | 39.30081 | -103.72752 | 21737 ft | 342 kts | 304° |
| 2026-05-09 03:59 | 39.31423 | -103.75270 | 21490 ft | 343 kts | 304° |
| 2026-05-09 03:59 | 39.32789 | -103.77806 | 21163 ft | 343 kts | 304° |
| 2026-05-09 03:59 | 39.34164 | -103.80369 | 20968 ft | 344 kts | 304° |
| 2026-05-09 03:59 | 39.35532 | -103.82937 | 20692 ft | 349 kts | 304° |
| 2026-05-09 04:00 | 39.36903 | -103.85524 | 20422 ft | 348 kts | 303° |
| 2026-05-09 04:00 | 39.38247 | -103.88067 | 20139 ft | 346 kts | 303° |
| 2026-05-09 04:00 | 39.39613 | -103.90659 | 19877 ft | 341 kts | 303° |
| 2026-05-09 04:00 | 39.40919 | -103.93137 | 19612 ft | 334 kts | 303° |
| 2026-05-09 04:01 | 39.42211 | -103.95591 | 19354 ft | 327 kts | 303° |
| 2026-05-09 04:01 | 39.43477 | -103.97998 | 19109 ft | 320 kts | 303° |
| 2026-05-09 04:01 | 39.44725 | -104.00353 | 18859 ft | 313 kts | 304° |
| 2026-05-09 04:01 | 39.46009 | -104.02605 | 18627 ft | 309 kts | 305° |
| 2026-05-09 04:02 | 39.47293 | -104.04795 | 18398 ft | 303 kts | 305° |
| 2026-05-09 04:02 | 39.48553 | -104.06950 | 18176 ft | 300 kts | 304° |
| 2026-05-09 04:02 | 39.49802 | -104.09101 | 17930 ft | 298 kts | 304° |
| 2026-05-09 04:02 | 39.51044 | -104.11247 | 17700 ft | 295 kts | 304° |
| 2026-05-09 04:03 | 39.52268 | -104.13370 | 17478 ft | 293 kts | 304° |
| 2026-05-09 04:03 | 39.53479 | -104.15475 | 17251 ft | 290 kts | 304° |
| 2026-05-09 04:03 | 39.54684 | -104.17571 | 17026 ft | 291 kts | 304° |
| 2026-05-09 04:03 | 39.55902 | -104.19679 | 16783 ft | 295 kts | 306° |
| 2026-05-09 04:04 | 39.57173 | -104.21789 | 16500 ft | 298 kts | 306° |
| 2026-05-09 04:04 | 39.58461 | -104.23894 | 16221 ft | 298 kts | 306° |
| 2026-05-09 04:04 | 39.59072 | -104.24891 | 16095 ft | 298 kts | 306° |
| 2026-05-09 04:05 | 39.60361 | -104.26997 | 15815 ft | 298 kts | 307° |
| 2026-05-09 04:05 | 39.61561 | -104.28960 | 15556 ft | 298 kts | 307° |
| 2026-05-09 04:05 | 39.62847 | -104.31070 | 15284 ft | 298 kts | 307° |
| 2026-05-09 04:05 | 39.64130 | -104.33180 | 15005 ft | 298 kts | 307° |
| 2026-05-09 04:06 | 39.65404 | -104.35278 | 14734 ft | 295 kts | 306° |
| 2026-05-09 04:06 | 39.66664 | -104.37356 | 14466 ft | 291 kts | 307° |
| 2026-05-09 04:06 | 39.67913 | -104.39415 | 14197 ft | 289 kts | 306° |
| 2026-05-09 04:06 | 39.69149 | -104.41456 | 13936 ft | 287 kts | 306° |
| 2026-05-09 04:07 | 39.70376 | -104.43482 | 13646 ft | 285 kts | 306° |
| 2026-05-09 04:07 | 39.71598 | -104.45501 | 13364 ft | 283 kts | 306° |
| 2026-05-09 04:07 | 39.72877 | -104.47432 | 13068 ft | 283 kts | 317° |
| 2026-05-09 04:07 | 39.74564 | -104.48754 | 12836 ft | 288 kts | 336° |
| 2026-05-09 04:08 | 39.76508 | -104.49482 | 12592 ft | 292 kts | 342° |
| 2026-05-09 04:08 | 39.78484 | -104.50120 | 12337 ft | 293 kts | 342° |
| 2026-05-09 04:08 | 39.80468 | -104.50776 | 12107 ft | 294 kts | 342° |
| 2026-05-09 04:08 | 39.82451 | -104.51450 | 11857 ft | 296 kts | 342° |
| 2026-05-09 04:09 | 39.84428 | -104.52124 | 11626 ft | 291 kts | 343° |
| 2026-05-09 04:09 | 39.86439 | -104.52405 | 11380 ft | 291 kts | 356° |
| 2026-05-09 04:09 | 39.88455 | -104.52350 | 11135 ft | 288 kts | 359° |
| 2026-05-09 04:09 | 39.90426 | -104.52271 | 11028 ft | 279 kts | 358° |
| 2026-05-09 04:10 | 39.92324 | -104.52217 | 10970 ft | 267 kts | 357° |
| 2026-05-09 04:10 | 39.94152 | -104.52176 | 10825 ft | 261 kts | 357° |
| 2026-05-09 04:10 | 39.95968 | -104.52145 | 10530 ft | 261 kts | 357° |
| 2026-05-09 04:10 | 39.97787 | -104.52118 | 10246 ft | 262 kts | 357° |
| 2026-05-09 04:11 | 39.99590 | -104.52265 | 9974 ft | 256 kts | 343° |
| 2026-05-09 04:11 | 40.01133 | -104.53271 | 9660 ft | 244 kts | 317° |
| 2026-05-09 04:11 | 40.02218 | -104.54917 | 9373 ft | 236 kts | 298° |
| 2026-05-09 04:11 | 40.02795 | -104.56888 | 9111 ft | 233 kts | 279° |
| 2026-05-09 04:12 | 40.02839 | -104.58994 | 8879 ft | 233 kts | 268° |
| 2026-05-09 04:12 | 40.02760 | -104.61104 | 8624 ft | 234 kts | 261° |
| 2026-05-09 04:12 | 40.02217 | -104.63093 | 8370 ft | 234 kts | 238° |
| 2026-05-09 04:12 | 40.01151 | -104.64652 | 8134 ft | 235 kts | 217° |
| 2026-05-09 04:13 | 39.99688 | -104.65649 | 7887 ft | 235 kts | 197° |
| 2026-05-09 04:13 | 39.98104 | -104.65923 | 7643 ft | 228 kts | 179° |
| 2026-05-09 04:13 | 39.96567 | -104.65887 | 7404 ft | 220 kts | 181° |
| 2026-05-09 04:13 | 39.95040 | -104.65902 | 7148 ft | 213 kts | 181° |
| 2026-05-09 04:14 | 39.93737 | -104.65921 | 6950 ft | 205 kts | 181° |
| 2026-05-09 04:14 | 39.92312 | -104.65941 | 6650 ft | 202 kts | 180° |
| 2026-05-09 04:14 | 39.91381 | -104.65952 | 6473 ft | 195 kts | 179° |
| 2026-05-09 04:14 | 39.89694 | -104.65974 | 6284 ft | 166 kts | 179° |
| 2026-05-09 04:15 | 39.88562 | -104.65975 | 5874 ft | 158 kts | 179° |
| 2026-05-09 04:15 | 39.87833 | -104.65977 | 5688 ft | 152 kts | 179° |
| 2026-05-09 04:15 | 39.86796 | -104.66004 | 5512 ft | 148 kts | 180° |
| 2026-05-09 04:15 | 39.85767 | -104.66024 | 5403 ft | 147 kts | 180° |
| 2026-05-09 04:16 | 39.84829 | -104.66029 | 5410 ft | 119 kts | 180° |
| 2026-05-09 04:16 | 39.84436 | -104.66034 | 5415 ft | 33 kts | 183° |
| 2026-05-09 04:16 | 39.84221 | -104.66068 | 5414 ft | 30 kts | 196° |
| 2026-05-09 04:16 | 39.84089 | -104.66137 | 5414 ft | 14 kts | 208° |
| 2026-05-09 04:17 | 39.84042 | -104.66184 | 5415 ft | 7 kts | 238° |
| 2026-05-09 04:17 | 39.84047 | -104.66241 | 5421 ft | 7 kts | 310° |
| 2026-05-09 04:17 | 39.84098 | -104.66253 | 5413 ft | 9 kts | 360° |
| 2026-05-09 04:17 | 39.84180 | -104.66255 | 5410 ft | 15 kts | 1° |
| 2026-05-09 04:18 | 39.84301 | -104.66255 | 5408 ft | 20 kts | 359° |
| 2026-05-09 04:18 | 39.84457 | -104.66245 | 5415 ft | 25 kts | 4° |
| 2026-05-09 04:18 | 39.84641 | -104.66249 | 5408 ft | 27 kts | 359° |
| 2026-05-09 04:18 | 39.84826 | -104.66247 | 5402 ft | 26 kts | 0° |
| 2026-05-09 04:19 | 39.85002 | -104.66243 | 5397 ft | 24 kts | 1° |
| 2026-05-09 04:19 | 39.85165 | -104.66241 | 5392 ft | 23 kts | 359° |
| 2026-05-09 04:19 | 39.85320 | -104.66229 | 5393 ft | 22 kts | 349° |
| 2026-05-09 04:19 | 39.85472 | -104.66246 | 5389 ft | 22 kts | 345° |
| 2026-05-09 04:20 | 39.85619 | -104.66240 | 5392 ft | 21 kts | 4° |
| 2026-05-09 04:20 | 39.85764 | -104.66232 | 5388 ft | 20 kts | 2° |
| 2026-05-09 04:20 | 39.85903 | -104.66226 | 5385 ft | 20 kts | 3° |
| 2026-05-09 04:20 | 39.86002 | -104.66251 | 5386 ft | 14 kts | 309° |
| 2026-05-09 04:21 | 39.86016 | -104.66374 | 5383 ft | 14 kts | 270° |
| 2026-05-09 04:21 | 39.86021 | -104.66507 | 5380 ft | 15 kts | 282° |
| 2026-05-09 04:21 | 39.86061 | -104.66765 | 5378 ft | 14 kts | 270° |
| 2026-05-09 04:22 | 39.86061 | -104.66890 | 5377 ft | 13 kts | 269° |
| 2026-05-09 04:22 | 39.86062 | -104.67008 | 5376 ft | 13 kts | 272° |
| 2026-05-09 04:22 | 39.86062 | -104.67123 | 5378 ft | 12 kts | 270° |
| 2026-05-09 04:22 | 39.86064 | -104.67234 | 5378 ft | 12 kts | 271° |
| 2026-05-09 04:23 | 39.86066 | -104.67342 | 5374 ft | 12 kts | 269° |
| 2026-05-09 04:23 | 39.86065 | -104.67446 | 5374 ft | 11 kts | 270° |
| 2026-05-09 04:23 | 39.86064 | -104.67547 | 5375 ft | 11 kts | 269° |
| 2026-05-09 04:23 | 39.86065 | -104.67645 | 5373 ft | 11 kts | 272° |
| 2026-05-09 04:24 | 39.86070 | -104.67738 | 5378 ft | 10 kts | 283° |
| 2026-05-09 04:24 | 39.86128 | -104.67778 | 5374 ft | 10 kts | 4° |
| 2026-05-09 04:24 | 39.86196 | -104.67783 | 5373 ft | 10 kts | 354° |
| 2026-05-09 04:24 | 39.86219 | -104.67786 | 5375 ft | 0 kts | 357° |
| 2026-05-09 04:25 | 39.86228 | -104.67786 | 5375 ft | 2 kts | 358° |
| 2026-05-09 04:25 | 39.86248 | -104.67786 | 5374 ft | 3 kts | 359° |
| 2026-05-09 04:25 | 39.86257 | -104.67786 | 5374 ft | 0 kts | 359° |